sensor_id;sensor_type;location;lat;lon;timestamp;temperature;humidity
38568;DHT22;24338;48.280;10.970;2022-12-29T00:00:16;3.70;99.90
38568;DHT22;24338;48.280;10.970;2022-12-29T00:02:42;3.70;99.90
38568;DHT22;24338;48.280;10.970;2022-12-29T00:05:10;3.70;99.90
38568;DHT22;24338;48.280;10.970;2022-12-29T00:07:37;3.80;99.90
38568;DHT22;24338;48.280;10.970;2022-12-29T00:10:04;3.80;99.90
38568;DHT22;24338;48.280;10.970;2022-12-29T00:12:31;3.90;99.90
38568;DHT22;24338;48.280;10.970;2022-12-29T00:15:18;3.90;99.90
38568;DHT22;24338;48.280;10.970;2022-12-29T00:18:03;3.90;99.90
38568;DHT22;24338;48.280;10.970;2022-12-29T00:20:33;4.00;99.90
38568;DHT22;24338;48.280;10.970;2022-12-29T00:23:19;3.90;99.90
38568;DHT22;24338;48.280;10.970;2022-12-29T00:26:12;4.00;99.90
38568;DHT22;24338;48.280;10.970;2022-12-29T00:28:59;4.00;99.90
38568;DHT22;24338;48.280;10.970;2022-12-29T00:31:44;4.10;99.90
38568;DHT22;24338;48.280;10.970;2022-12-29T00:34:29;4.10;99.90
38568;DHT22;24338;48.280;10.970;2022-12-29T00:37:15;4.20;99.90
38568;DHT22;24338;48.280;10.970;2022-12-29T00:39:43;4.10;99.90
38568;DHT22;24338;48.280;10.970;2022-12-29T00:42:28;4.10;99.90
38568;DHT22;24338;48.280;10.970;2022-12-29T00:45:14;4.10;99.90
38568;DHT22;24338;48.280;10.970;2022-12-29T00:47:41;4.10;99.90
38568;DHT22;24338;48.280;10.970;2022-12-29T00:50:08;4.10;99.90
38568;DHT22;24338;48.280;10.970;2022-12-29T00:52:34;4.10;99.90
38568;DHT22;24338;48.280;10.970;2022-12-29T00:55:01;4.00;99.90
38568;DHT22;24338;48.280;10.970;2022-12-29T00:57:28;3.90;99.90
38568;DHT22;24338;48.280;10.970;2022-12-29T00:59:55;3.90;99.90
38568;DHT22;24338;48.280;10.970;2022-12-29T01:02:22;3.90;99.90
38568;DHT22;24338;48.280;10.970;2022-12-29T01:04:49;3.90;99.90
38568;DHT22;24338;48.280;10.970;2022-12-29T01:07:16;4.00;99.90
38568;DHT22;24338;48.280;10.970;2022-12-29T01:09:43;4.00;99.90
38568;DHT22;24338;48.280;10.970;2022-12-29T01:12:29;3.90;99.90
38568;DHT22;24338;48.280;10.970;2022-12-29T01:15:09;3.90;99.90
38568;DHT22;24338;48.280;10.970;2022-12-29T01:17:37;3.80;99.90
38568;DHT22;24338;48.280;10.970;2022-12-29T01:20:04;3.80;99.90
38568;DHT22;24338;48.280;10.970;2022-12-29T01:22:31;3.80;99.90
38568;DHT22;24338;48.280;10.970;2022-12-29T01:24:58;3.70;99.90
38568;DHT22;24338;48.280;10.970;2022-12-29T01:27:25;3.60;99.90
38568;DHT22;24338;48.280;10.970;2022-12-29T01:29:52;3.60;99.90
38568;DHT22;24338;48.280;10.970;2022-12-29T01:32:19;3.60;99.90
38568;DHT22;24338;48.280;10.970;2022-12-29T01:34:46;3.60;99.90
38568;DHT22;24338;48.280;10.970;2022-12-29T01:37:13;3.50;99.90
38568;DHT22;24338;48.280;10.970;2022-12-29T01:39:40;3.50;99.90
38568;DHT22;24338;48.280;10.970;2022-12-29T01:42:16;3.60;99.90
38568;DHT22;24338;48.280;10.970;2022-12-29T01:47:19;3.70;99.90
38568;DHT22;24338;48.280;10.970;2022-12-29T01:49:47;3.70;99.90
38568;DHT22;24338;48.280;10.970;2022-12-29T01:52:14;3.80;99.90
38568;DHT22;24338;48.280;10.970;2022-12-29T01:54:45;3.80;99.90
38568;DHT22;24338;48.280;10.970;2022-12-29T01:57:34;3.80;99.90
38568;DHT22;24338;48.280;10.970;2022-12-29T02:00:13;3.90;99.90
38568;DHT22;24338;48.280;10.970;2022-12-29T02:02:46;3.90;99.90
38568;DHT22;24338;48.280;10.970;2022-12-29T02:05:24;3.90;99.90
38568;DHT22;24338;48.280;10.970;2022-12-29T02:07:53;4.00;99.90
38568;DHT22;24338;48.280;10.970;2022-12-29T02:10:21;4.00;99.90
38568;DHT22;24338;48.280;10.970;2022-12-29T02:12:50;4.10;99.90
38568;DHT22;24338;48.280;10.970;2022-12-29T02:15:19;4.10;99.90
38568;DHT22;24338;48.280;10.970;2022-12-29T02:18:03;4.10;99.90
38568;DHT22;24338;48.280;10.970;2022-12-29T02:21:18;4.10;99.90
38568;DHT22;24338;48.280;10.970;2022-12-29T02:29:17;4.10;99.90
38568;DHT22;24338;48.280;10.970;2022-12-29T02:32:07;4.10;99.90
38568;DHT22;24338;48.280;10.970;2022-12-29T02:35:03;4.10;99.90
38568;DHT22;24338;48.280;10.970;2022-12-29T02:40:53;4.20;99.90
38568;DHT22;24338;48.280;10.970;2022-12-29T02:43:36;4.30;99.90
38568;DHT22;24338;48.280;10.970;2022-12-29T02:51:35;4.40;99.90
38568;DHT22;24338;48.280;10.970;2022-12-29T02:54:04;4.50;99.90
38568;DHT22;24338;48.280;10.970;2022-12-29T02:56:49;4.50;99.90
38568;DHT22;24338;48.280;10.970;2022-12-29T02:59:17;4.50;99.90
38568;DHT22;24338;48.280;10.970;2022-12-29T03:02:08;4.60;99.90
38568;DHT22;24338;48.280;10.970;2022-12-29T03:07:28;4.70;99.90
38568;DHT22;24338;48.280;10.970;2022-12-29T03:10:13;4.70;99.90
38568;DHT22;24338;48.280;10.970;2022-12-29T03:16:29;4.90;99.90
38568;DHT22;24338;48.280;10.970;2022-12-29T03:19:04;4.90;99.90
38568;DHT22;24338;48.280;10.970;2022-12-29T03:21:43;5.00;99.90
38568;DHT22;24338;48.280;10.970;2022-12-29T03:24:38;5.10;99.90
38568;DHT22;24338;48.280;10.970;2022-12-29T03:27:09;5.10;99.90
38568;DHT22;24338;48.280;10.970;2022-12-29T03:29:41;5.20;99.90
38568;DHT22;24338;48.280;10.970;2022-12-29T03:32:11;5.20;99.90
38568;DHT22;24338;48.280;10.970;2022-12-29T03:34:39;5.30;99.90
38568;DHT22;24338;48.280;10.970;2022-12-29T03:37:15;5.30;99.90
38568;DHT22;24338;48.280;10.970;2022-12-29T03:39:44;5.30;99.90
38568;DHT22;24338;48.280;10.970;2022-12-29T03:42:17;5.40;99.90
38568;DHT22;24338;48.280;10.970;2022-12-29T03:44:46;5.50;99.90
38568;DHT22;24338;48.280;10.970;2022-12-29T03:47:14;5.50;99.90
38568;DHT22;24338;48.280;10.970;2022-12-29T03:49:41;5.50;99.90
38568;DHT22;24338;48.280;10.970;2022-12-29T03:52:08;5.50;99.90
38568;DHT22;24338;48.280;10.970;2022-12-29T03:54:35;5.60;99.90
38568;DHT22;24338;48.280;10.970;2022-12-29T03:57:02;5.50;99.90
38568;DHT22;24338;48.280;10.970;2022-12-29T03:59:28;5.50;99.90
38568;DHT22;24338;48.280;10.970;2022-12-29T04:01:55;5.50;99.90
38568;DHT22;24338;48.280;10.970;2022-12-29T04:04:22;5.50;99.90
38568;DHT22;24338;48.280;10.970;2022-12-29T04:06:49;5.60;99.90
38568;DHT22;24338;48.280;10.970;2022-12-29T04:09:16;5.70;99.90
38568;DHT22;24338;48.280;10.970;2022-12-29T04:11:43;5.80;99.90
38568;DHT22;24338;48.280;10.970;2022-12-29T04:14:10;5.80;99.90
38568;DHT22;24338;48.280;10.970;2022-12-29T04:16:37;5.90;99.90
38568;DHT22;24338;48.280;10.970;2022-12-29T04:19:06;5.90;99.90
38568;DHT22;24338;48.280;10.970;2022-12-29T04:21:34;5.90;99.90
38568;DHT22;24338;48.280;10.970;2022-12-29T04:24:00;5.90;99.90
38568;DHT22;24338;48.280;10.970;2022-12-29T04:26:27;6.00;99.90
38568;DHT22;24338;48.280;10.970;2022-12-29T04:28:54;6.00;99.90
38568;DHT22;24338;48.280;10.970;2022-12-29T04:31:21;6.00;99.90
38568;DHT22;24338;48.280;10.970;2022-12-29T04:33:48;5.90;99.90
38568;DHT22;24338;48.280;10.970;2022-12-29T04:36:15;5.90;99.90
38568;DHT22;24338;48.280;10.970;2022-12-29T04:38:44;5.90;99.90
38568;DHT22;24338;48.280;10.970;2022-12-29T04:41:11;5.80;99.90
38568;DHT22;24338;48.280;10.970;2022-12-29T04:43:37;5.80;99.90
38568;DHT22;24338;48.280;10.970;2022-12-29T04:46:05;5.80;99.90
38568;DHT22;24338;48.280;10.970;2022-12-29T04:48:33;5.70;99.90
38568;DHT22;24338;48.280;10.970;2022-12-29T04:51:00;5.70;99.90
38568;DHT22;24338;48.280;10.970;2022-12-29T04:53:27;5.70;99.90
38568;DHT22;24338;48.280;10.970;2022-12-29T04:55:54;5.70;99.90
38568;DHT22;24338;48.280;10.970;2022-12-29T04:58:21;5.60;99.90
38568;DHT22;24338;48.280;10.970;2022-12-29T05:00:50;5.60;99.90
38568;DHT22;24338;48.280;10.970;2022-12-29T05:03:17;5.60;99.90
38568;DHT22;24338;48.280;10.970;2022-12-29T05:05:44;5.60;99.90
38568;DHT22;24338;48.280;10.970;2022-12-29T05:08:11;5.60;99.90
38568;DHT22;24338;48.280;10.970;2022-12-29T05:10:39;5.50;99.90
38568;DHT22;24338;48.280;10.970;2022-12-29T05:13:06;5.60;99.90
38568;DHT22;24338;48.280;10.970;2022-12-29T05:15:33;5.60;99.90
38568;DHT22;24338;48.280;10.970;2022-12-29T05:17:59;5.60;99.90
38568;DHT22;24338;48.280;10.970;2022-12-29T05:20:26;5.60;99.90
38568;DHT22;24338;48.280;10.970;2022-12-29T05:22:53;5.60;99.90
38568;DHT22;24338;48.280;10.970;2022-12-29T05:25:20;5.60;99.90
38568;DHT22;24338;48.280;10.970;2022-12-29T05:27:47;5.60;99.90
38568;DHT22;24338;48.280;10.970;2022-12-29T05:30:14;5.60;99.90
38568;DHT22;24338;48.280;10.970;2022-12-29T05:32:41;5.70;99.90
38568;DHT22;24338;48.280;10.970;2022-12-29T05:35:08;5.80;99.90
38568;DHT22;24338;48.280;10.970;2022-12-29T05:37:35;5.90;99.90
38568;DHT22;24338;48.280;10.970;2022-12-29T05:40:02;5.90;99.90
38568;DHT22;24338;48.280;10.970;2022-12-29T05:42:29;6.00;99.90
38568;DHT22;24338;48.280;10.970;2022-12-29T05:44:56;6.10;99.90
38568;DHT22;24338;48.280;10.970;2022-12-29T05:47:22;6.20;99.90
38568;DHT22;24338;48.280;10.970;2022-12-29T05:49:49;6.20;99.90
38568;DHT22;24338;48.280;10.970;2022-12-29T05:52:16;6.20;99.90
38568;DHT22;24338;48.280;10.970;2022-12-29T05:57:18;6.20;99.90
38568;DHT22;24338;48.280;10.970;2022-12-29T05:59:44;6.30;99.90
38568;DHT22;24338;48.280;10.970;2022-12-29T06:02:11;6.40;99.90
38568;DHT22;24338;48.280;10.970;2022-12-29T06:04:38;6.40;99.90
38568;DHT22;24338;48.280;10.970;2022-12-29T06:07:05;6.50;99.90
38568;DHT22;24338;48.280;10.970;2022-12-29T06:09:32;6.70;99.90
38568;DHT22;24338;48.280;10.970;2022-12-29T06:11:59;6.70;99.90
38568;DHT22;24338;48.280;10.970;2022-12-29T06:14:26;6.90;99.90
38568;DHT22;24338;48.280;10.970;2022-12-29T06:16:53;7.00;99.90
38568;DHT22;24338;48.280;10.970;2022-12-29T06:19:20;7.00;99.90
38568;DHT22;24338;48.280;10.970;2022-12-29T06:21:47;7.00;99.90
38568;DHT22;24338;48.280;10.970;2022-12-29T06:24:13;7.20;99.90
38568;DHT22;24338;48.280;10.970;2022-12-29T06:26:40;7.30;99.90
38568;DHT22;24338;48.280;10.970;2022-12-29T06:29:08;7.30;99.90
38568;DHT22;24338;48.280;10.970;2022-12-29T06:31:35;7.30;99.90
38568;DHT22;24338;48.280;10.970;2022-12-29T06:34:02;7.30;99.90
38568;DHT22;24338;48.280;10.970;2022-12-29T06:36:34;7.30;99.90
38568;DHT22;24338;48.280;10.970;2022-12-29T06:39:01;7.30;99.90
38568;DHT22;24338;48.280;10.970;2022-12-29T06:41:28;7.30;99.90
38568;DHT22;24338;48.280;10.970;2022-12-29T06:43:58;7.40;99.90
38568;DHT22;24338;48.280;10.970;2022-12-29T06:46:25;7.40;99.90
38568;DHT22;24338;48.280;10.970;2022-12-29T06:48:51;7.50;99.90
38568;DHT22;24338;48.280;10.970;2022-12-29T06:51:18;7.40;99.90
38568;DHT22;24338;48.280;10.970;2022-12-29T06:53:45;7.40;99.90
38568;DHT22;24338;48.280;10.970;2022-12-29T06:56:12;7.40;99.90
38568;DHT22;24338;48.280;10.970;2022-12-29T06:58:39;7.40;99.90
38568;DHT22;24338;48.280;10.970;2022-12-29T07:01:06;7.50;99.90
38568;DHT22;24338;48.280;10.970;2022-12-29T07:03:33;7.50;99.90
38568;DHT22;24338;48.280;10.970;2022-12-29T07:06:00;7.60;99.90
38568;DHT22;24338;48.280;10.970;2022-12-29T07:08:27;7.50;99.90
38568;DHT22;24338;48.280;10.970;2022-12-29T07:10:54;7.60;99.90
38568;DHT22;24338;48.280;10.970;2022-12-29T07:13:21;7.70;99.90
38568;DHT22;24338;48.280;10.970;2022-12-29T07:15:48;7.60;99.90
38568;DHT22;24338;48.280;10.970;2022-12-29T07:18:15;7.60;99.90
38568;DHT22;24338;48.280;10.970;2022-12-29T07:20:42;7.60;99.90
38568;DHT22;24338;48.280;10.970;2022-12-29T07:23:10;7.60;99.90
38568;DHT22;24338;48.280;10.970;2022-12-29T07:25:37;7.60;99.90
38568;DHT22;24338;48.280;10.970;2022-12-29T07:28:04;7.70;99.90
38568;DHT22;24338;48.280;10.970;2022-12-29T07:30:30;7.70;99.90
38568;DHT22;24338;48.280;10.970;2022-12-29T07:32:57;7.80;99.90
38568;DHT22;24338;48.280;10.970;2022-12-29T07:35:24;7.90;99.90
38568;DHT22;24338;48.280;10.970;2022-12-29T07:37:51;7.80;99.90
38568;DHT22;24338;48.280;10.970;2022-12-29T07:40:18;7.80;99.90
38568;DHT22;24338;48.280;10.970;2022-12-29T07:42:44;7.80;99.90
38568;DHT22;24338;48.280;10.970;2022-12-29T07:45:11;7.80;99.90
38568;DHT22;24338;48.280;10.970;2022-12-29T07:47:38;7.90;99.90
38568;DHT22;24338;48.280;10.970;2022-12-29T07:50:05;8.00;99.90
38568;DHT22;24338;48.280;10.970;2022-12-29T07:52:32;8.00;99.90
38568;DHT22;24338;48.280;10.970;2022-12-29T07:54:59;8.10;99.90
38568;DHT22;24338;48.280;10.970;2022-12-29T07:57:26;8.20;99.90
38568;DHT22;24338;48.280;10.970;2022-12-29T07:59:58;8.30;99.90
38568;DHT22;24338;48.280;10.970;2022-12-29T08:02:24;8.30;99.90
38568;DHT22;24338;48.280;10.970;2022-12-29T08:04:53;8.40;99.90
38568;DHT22;24338;48.280;10.970;2022-12-29T08:07:20;8.50;99.90
38568;DHT22;24338;48.280;10.970;2022-12-29T08:09:47;8.50;99.90
38568;DHT22;24338;48.280;10.970;2022-12-29T08:12:14;8.50;99.90
38568;DHT22;24338;48.280;10.970;2022-12-29T08:14:40;8.50;99.90
38568;DHT22;24338;48.280;10.970;2022-12-29T08:17:07;8.70;99.90
38568;DHT22;24338;48.280;10.970;2022-12-29T08:19:34;8.70;99.90
38568;DHT22;24338;48.280;10.970;2022-12-29T08:22:02;8.70;99.90
38568;DHT22;24338;48.280;10.970;2022-12-29T08:24:28;8.80;99.90
38568;DHT22;24338;48.280;10.970;2022-12-29T08:26:55;8.90;99.90
38568;DHT22;24338;48.280;10.970;2022-12-29T08:29:22;9.00;99.90
38568;DHT22;24338;48.280;10.970;2022-12-29T08:31:49;9.10;99.90
38568;DHT22;24338;48.280;10.970;2022-12-29T08:34:16;9.10;99.90
38568;DHT22;24338;48.280;10.970;2022-12-29T08:36:43;9.20;99.90
38568;DHT22;24338;48.280;10.970;2022-12-29T08:39:10;9.20;99.90
38568;DHT22;24338;48.280;10.970;2022-12-29T08:41:37;9.20;99.90
38568;DHT22;24338;48.280;10.970;2022-12-29T08:44:04;9.30;99.90
38568;DHT22;24338;48.280;10.970;2022-12-29T08:46:31;9.30;99.90
38568;DHT22;24338;48.280;10.970;2022-12-29T08:48:58;9.40;99.90
38568;DHT22;24338;48.280;10.970;2022-12-29T08:51:24;9.40;99.90
38568;DHT22;24338;48.280;10.970;2022-12-29T08:53:52;9.40;99.90
38568;DHT22;24338;48.280;10.970;2022-12-29T08:56:19;9.40;99.90
38568;DHT22;24338;48.280;10.970;2022-12-29T08:58:46;9.50;99.90
38568;DHT22;24338;48.280;10.970;2022-12-29T09:01:12;9.60;99.90
38568;DHT22;24338;48.280;10.970;2022-12-29T09:03:39;9.60;99.90
38568;DHT22;24338;48.280;10.970;2022-12-29T09:06:26;9.60;99.90
38568;DHT22;24338;48.280;10.970;2022-12-29T09:08:54;9.70;99.90
38568;DHT22;24338;48.280;10.970;2022-12-29T09:11:23;9.80;99.90
38568;DHT22;24338;48.280;10.970;2022-12-29T09:13:51;9.80;99.90
38568;DHT22;24338;48.280;10.970;2022-12-29T09:16:19;9.70;99.90
38568;DHT22;24338;48.280;10.970;2022-12-29T09:18:47;9.70;99.90
38568;DHT22;24338;48.280;10.970;2022-12-29T09:21:14;9.70;99.90
38568;DHT22;24338;48.280;10.970;2022-12-29T09:23:41;9.70;99.90
38568;DHT22;24338;48.280;10.970;2022-12-29T09:26:08;9.70;99.90
38568;DHT22;24338;48.280;10.970;2022-12-29T09:28:36;9.80;99.90
38568;DHT22;24338;48.280;10.970;2022-12-29T09:31:03;9.80;99.90
38568;DHT22;24338;48.280;10.970;2022-12-29T09:33:30;9.80;99.90
38568;DHT22;24338;48.280;10.970;2022-12-29T09:35:59;9.80;99.90
38568;DHT22;24338;48.280;10.970;2022-12-29T09:38:27;9.80;99.90
38568;DHT22;24338;48.280;10.970;2022-12-29T09:40:59;9.80;99.90
38568;DHT22;24338;48.280;10.970;2022-12-29T09:44:49;9.80;99.90
38568;DHT22;24338;48.280;10.970;2022-12-29T09:46:48;9.80;99.90
38568;DHT22;24338;48.280;10.970;2022-12-29T09:51:54;10.00;99.90
38568;DHT22;24338;48.280;10.970;2022-12-29T09:57:01;10.00;99.90
38568;DHT22;24338;48.280;10.970;2022-12-29T09:59:39;10.10;99.90
38568;DHT22;24338;48.280;10.970;2022-12-29T10:04:57;10.10;99.90
38568;DHT22;24338;48.280;10.970;2022-12-29T10:07:36;10.10;99.90
38568;DHT22;24338;48.280;10.970;2022-12-29T10:10:29;10.30;99.90
38568;DHT22;24338;48.280;10.970;2022-12-29T10:13:25;10.30;99.90
38568;DHT22;24338;48.280;10.970;2022-12-29T10:21:07;10.30;99.90
38568;DHT22;24338;48.280;10.970;2022-12-29T10:23:50;10.30;99.90
38568;DHT22;24338;48.280;10.970;2022-12-29T10:26:21;10.40;99.90
38568;DHT22;24338;48.280;10.970;2022-12-29T10:28:54;10.50;99.90
38568;DHT22;24338;48.280;10.970;2022-12-29T10:31:44;10.60;99.90
38568;DHT22;24338;48.280;10.970;2022-12-29T10:40:26;10.60;99.90
38568;DHT22;24338;48.280;10.970;2022-12-29T10:42:57;10.60;99.80
38568;DHT22;24338;48.280;10.970;2022-12-29T10:45:28;10.50;99.90
38568;DHT22;24338;48.280;10.970;2022-12-29T10:48:07;10.50;99.90
38568;DHT22;24338;48.280;10.970;2022-12-29T10:50:36;10.50;99.90
38568;DHT22;24338;48.280;10.970;2022-12-29T10:53:15;10.50;99.90
38568;DHT22;24338;48.280;10.970;2022-12-29T10:55:44;10.50;99.90
38568;DHT22;24338;48.280;10.970;2022-12-29T10:58:13;10.50;99.90
38568;DHT22;24338;48.280;10.970;2022-12-29T11:00:42;10.50;99.90
38568;DHT22;24338;48.280;10.970;2022-12-29T11:06:27;10.70;99.90
38568;DHT22;24338;48.280;10.970;2022-12-29T11:09:02;10.80;99.90
38568;DHT22;24338;48.280;10.970;2022-12-29T11:11:36;10.90;99.90
38568;DHT22;24338;48.280;10.970;2022-12-29T11:14:17;10.90;99.90
38568;DHT22;24338;48.280;10.970;2022-12-29T11:16:44;10.90;99.90
38568;DHT22;24338;48.280;10.970;2022-12-29T11:19:28;10.90;99.90
38568;DHT22;24338;48.280;10.970;2022-12-29T11:21:55;10.80;99.90
38568;DHT22;24338;48.280;10.970;2022-12-29T11:24:25;10.90;99.90
38568;DHT22;24338;48.280;10.970;2022-12-29T11:27:15;11.00;99.70
38568;DHT22;24338;48.280;10.970;2022-12-29T11:29:42;11.20;99.90
38568;DHT22;24338;48.280;10.970;2022-12-29T11:34:54;11.60;99.10
38568;DHT22;24338;48.280;10.970;2022-12-29T11:37:26;11.80;98.80
38568;DHT22;24338;48.280;10.970;2022-12-29T11:39:59;11.90;97.70
38568;DHT22;24338;48.280;10.970;2022-12-29T11:42:54;12.00;97.80
38568;DHT22;24338;48.280;10.970;2022-12-29T11:45:24;12.10;97.10
38568;DHT22;24338;48.280;10.970;2022-12-29T11:47:55;12.20;96.60
38568;DHT22;24338;48.280;10.970;2022-12-29T11:50:29;12.20;96.80
38568;DHT22;24338;48.280;10.970;2022-12-29T11:53:21;12.40;96.80
38568;DHT22;24338;48.280;10.970;2022-12-29T11:56:01;12.50;95.80
38568;DHT22;24338;48.280;10.970;2022-12-29T11:58:34;12.50;95.90
38568;DHT22;24338;48.280;10.970;2022-12-29T12:01:25;12.60;96.70
38568;DHT22;24338;48.280;10.970;2022-12-29T12:04:03;12.50;96.80
38568;DHT22;24338;48.280;10.970;2022-12-29T12:09:10;12.50;96.00
38568;DHT22;24338;48.280;10.970;2022-12-29T12:11:43;12.60;96.40
38568;DHT22;24338;48.280;10.970;2022-12-29T12:16:54;12.70;95.70
38568;DHT22;24338;48.280;10.970;2022-12-29T12:22:22;12.40;95.90
38568;DHT22;24338;48.280;10.970;2022-12-29T12:25:02;12.40;96.20
38568;DHT22;24338;48.280;10.970;2022-12-29T12:27:42;12.40;96.50
38568;DHT22;24338;48.280;10.970;2022-12-29T12:30:21;12.40;96.00
38568;DHT22;24338;48.280;10.970;2022-12-29T12:33:06;12.40;95.50
38568;DHT22;24338;48.280;10.970;2022-12-29T12:47:15;12.10;97.00
38568;DHT22;24338;48.280;10.970;2022-12-29T12:50:08;12.10;96.40
38568;DHT22;24338;48.280;10.970;2022-12-29T12:53:02;12.10;97.50
38568;DHT22;24338;48.280;10.970;2022-12-29T12:58:24;12.10;97.80
38568;DHT22;24338;48.280;10.970;2022-12-29T13:11:41;11.90;98.70
38568;DHT22;24338;48.280;10.970;2022-12-29T13:14:22;11.90;99.10
38568;DHT22;24338;48.280;10.970;2022-12-29T13:16:54;11.90;99.40
38568;DHT22;24338;48.280;10.970;2022-12-29T13:22:39;11.90;99.50
38568;DHT22;24338;48.280;10.970;2022-12-29T13:30:25;11.80;99.90
38568;DHT22;24338;48.280;10.970;2022-12-29T13:38:29;11.60;99.90
38568;DHT22;24338;48.280;10.970;2022-12-29T13:41:00;11.60;99.90
38568;DHT22;24338;48.280;10.970;2022-12-29T13:43:30;11.60;99.90
38568;DHT22;24338;48.280;10.970;2022-12-29T13:46:18;11.50;99.90
38568;DHT22;24338;48.280;10.970;2022-12-29T13:51:18;11.40;99.90
38568;DHT22;24338;48.280;10.970;2022-12-29T14:00:04;11.30;99.90
38568;DHT22;24338;48.280;10.970;2022-12-29T14:08:03;11.30;99.90
38568;DHT22;24338;48.280;10.970;2022-12-29T14:10:45;11.20;99.90
38568;DHT22;24338;48.280;10.970;2022-12-29T14:13:23;11.20;99.90
38568;DHT22;24338;48.280;10.970;2022-12-29T14:15:55;11.10;99.90
38568;DHT22;24338;48.280;10.970;2022-12-29T14:18:28;11.00;99.90
38568;DHT22;24338;48.280;10.970;2022-12-29T14:20:58;11.00;99.90
38568;DHT22;24338;48.280;10.970;2022-12-29T14:26:11;10.90;99.90
38568;DHT22;24338;48.280;10.970;2022-12-29T14:28:46;10.90;99.90
38568;DHT22;24338;48.280;10.970;2022-12-29T14:34:14;10.80;99.90
38568;DHT22;24338;48.280;10.970;2022-12-29T14:36:41;10.80;99.90
38568;DHT22;24338;48.280;10.970;2022-12-29T14:47:45;10.70;99.90
38568;DHT22;24338;48.280;10.970;2022-12-29T14:50:41;10.60;99.90
38568;DHT22;24338;48.280;10.970;2022-12-29T14:53:46;10.50;99.90
38568;DHT22;24338;48.280;10.970;2022-12-29T14:56:16;10.50;99.90
38568;DHT22;24338;48.280;10.970;2022-12-29T14:59:03;10.40;99.90
38568;DHT22;24338;48.280;10.970;2022-12-29T15:01:40;10.30;99.90
38568;DHT22;24338;48.280;10.970;2022-12-29T15:04:17;10.30;99.90
38568;DHT22;24338;48.280;10.970;2022-12-29T15:06:45;10.10;99.90
38568;DHT22;24338;48.280;10.970;2022-12-29T15:09:15;10.20;99.90
38568;DHT22;24338;48.280;10.970;2022-12-29T15:14:54;10.10;99.90
38568;DHT22;24338;48.280;10.970;2022-12-29T15:17:30;10.10;99.90
38568;DHT22;24338;48.280;10.970;2022-12-29T15:19:59;10.10;99.90
38568;DHT22;24338;48.280;10.970;2022-12-29T15:22:27;10.00;99.90
38568;DHT22;24338;48.280;10.970;2022-12-29T15:24:55;10.00;99.90
38568;DHT22;24338;48.280;10.970;2022-12-29T15:27:25;10.00;99.90
38568;DHT22;24338;48.280;10.970;2022-12-29T15:30:03;9.90;99.90
38568;DHT22;24338;48.280;10.970;2022-12-29T15:32:40;9.90;99.90
38568;DHT22;24338;48.280;10.970;2022-12-29T15:37:58;9.80;99.90
38568;DHT22;24338;48.280;10.970;2022-12-29T15:40:30;9.80;99.90
38568;DHT22;24338;48.280;10.970;2022-12-29T15:45:33;9.70;99.90
38568;DHT22;24338;48.280;10.970;2022-12-29T15:48:01;9.70;99.90
38568;DHT22;24338;48.280;10.970;2022-12-29T15:50:30;9.60;99.90
38568;DHT22;24338;48.280;10.970;2022-12-29T15:52:58;9.70;99.90
38568;DHT22;24338;48.280;10.970;2022-12-29T15:55:34;9.70;99.90
38568;DHT22;24338;48.280;10.970;2022-12-29T15:58:04;9.70;99.90
38568;DHT22;24338;48.280;10.970;2022-12-29T16:00:35;9.60;99.90
38568;DHT22;24338;48.280;10.970;2022-12-29T16:03:05;9.60;99.90
38568;DHT22;24338;48.280;10.970;2022-12-29T16:05:38;9.50;99.90
38568;DHT22;24338;48.280;10.970;2022-12-29T16:10:52;9.50;99.90
38568;DHT22;24338;48.280;10.970;2022-12-29T16:13:28;9.40;99.90
38568;DHT22;24338;48.280;10.970;2022-12-29T16:16:14;9.40;99.90
38568;DHT22;24338;48.280;10.970;2022-12-29T16:18:43;9.40;99.90
38568;DHT22;24338;48.280;10.970;2022-12-29T16:21:19;9.40;99.90
38568;DHT22;24338;48.280;10.970;2022-12-29T16:23:50;9.40;99.90
38568;DHT22;24338;48.280;10.970;2022-12-29T16:26:19;9.30;99.90
38568;DHT22;24338;48.280;10.970;2022-12-29T16:28:49;9.30;99.90
38568;DHT22;24338;48.280;10.970;2022-12-29T16:31:33;9.30;99.90
38568;DHT22;24338;48.280;10.970;2022-12-29T16:34:11;9.40;99.90
38568;DHT22;24338;48.280;10.970;2022-12-29T16:37:01;9.40;99.90
38568;DHT22;24338;48.280;10.970;2022-12-29T16:39:38;9.50;99.90
38568;DHT22;24338;48.280;10.970;2022-12-29T16:50:32;9.70;99.90
38568;DHT22;24338;48.280;10.970;2022-12-29T16:53:01;9.80;99.90
38568;DHT22;24338;48.280;10.970;2022-12-29T16:55:29;9.70;99.90
38568;DHT22;24338;48.280;10.970;2022-12-29T16:57:57;9.70;99.90
38568;DHT22;24338;48.280;10.970;2022-12-29T17:00:33;9.60;99.90
38568;DHT22;24338;48.280;10.970;2022-12-29T17:03:02;9.50;99.90
38568;DHT22;24338;48.280;10.970;2022-12-29T17:05:30;9.50;99.90
38568;DHT22;24338;48.280;10.970;2022-12-29T17:07:56;9.40;99.90
38568;DHT22;24338;48.280;10.970;2022-12-29T17:10:27;9.40;99.90
38568;DHT22;24338;48.280;10.970;2022-12-29T17:13:14;9.30;99.90
38568;DHT22;24338;48.280;10.970;2022-12-29T17:15:41;9.30;99.90
38568;DHT22;24338;48.280;10.970;2022-12-29T17:18:08;9.20;99.90
38568;DHT22;24338;48.280;10.970;2022-12-29T17:20:39;9.30;99.90
38568;DHT22;24338;48.280;10.970;2022-12-29T17:23:15;9.20;99.90
38568;DHT22;24338;48.280;10.970;2022-12-29T17:25:50;9.20;99.90
38568;DHT22;24338;48.280;10.970;2022-12-29T17:28:23;9.30;99.90
38568;DHT22;24338;48.280;10.970;2022-12-29T17:30:52;9.30;99.90
38568;DHT22;24338;48.280;10.970;2022-12-29T17:33:20;9.30;99.90
38568;DHT22;24338;48.280;10.970;2022-12-29T17:35:47;9.30;99.90
38568;DHT22;24338;48.280;10.970;2022-12-29T17:38:30;9.30;99.90
38568;DHT22;24338;48.280;10.970;2022-12-29T17:40:58;9.30;99.90
38568;DHT22;24338;48.280;10.970;2022-12-29T17:43:25;9.30;99.90
38568;DHT22;24338;48.280;10.970;2022-12-29T17:46:02;9.20;99.90
38568;DHT22;24338;48.280;10.970;2022-12-29T17:48:31;9.30;99.90
38568;DHT22;24338;48.280;10.970;2022-12-29T17:50:58;9.40;99.90
38568;DHT22;24338;48.280;10.970;2022-12-29T17:53:28;9.30;99.90
38568;DHT22;24338;48.280;10.970;2022-12-29T17:55:55;9.30;99.90
38568;DHT22;24338;48.280;10.970;2022-12-29T17:58:27;9.30;99.90
38568;DHT22;24338;48.280;10.970;2022-12-29T18:00:56;9.30;99.90
38568;DHT22;24338;48.280;10.970;2022-12-29T18:03:33;9.20;99.90
38568;DHT22;24338;48.280;10.970;2022-12-29T18:06:02;9.20;99.90
38568;DHT22;24338;48.280;10.970;2022-12-29T18:08:33;9.20;99.90
38568;DHT22;24338;48.280;10.970;2022-12-29T18:11:01;9.20;99.90
38568;DHT22;24338;48.280;10.970;2022-12-29T18:13:30;9.20;99.90
38568;DHT22;24338;48.280;10.970;2022-12-29T18:16:12;9.20;99.90
38568;DHT22;24338;48.280;10.970;2022-12-29T18:18:39;9.20;99.90
38568;DHT22;24338;48.280;10.970;2022-12-29T18:21:17;9.20;99.90